Time;durP1;ratioP1;P1;durP2;ratioP2;P2;SDS_P1;SDS_P2;PMS_P1;PMS_P2;Temp;Humidity;BMP_temperature;BMP_pressure;BME280_temperature;BME280_humidity;BME280_pressure;Samples;Min_cycle;Max_cycle;Signal;HPM_P1;HPM_P2
2023/04/27 00:00:10;;;;;;;;;;;;;;;-142.75;100.00;78464.41;5008014;28;19929;-65
2023/04/27 00:02:37;;;;;;;;;;;;;;;-142.75;100.00;78474.25;5007956;28;19917;-65
2023/04/27 00:05:02;;;;;;;;;;;;;;;-142.75;100.00;78474.25;5007964;28;19913;-66
2023/04/27 00:07:28;;;;;;;;;;;;;;;-142.75;100.00;78476.22;4990306;28;19921;-66
2023/04/27 00:09:53;;;;;;;;;;;;;;;-142.75;100.00;78488.03;5007728;28;20004;-65
2023/04/27 00:12:18;;;;;;;;;;;;;;;-142.75;100.00;78490.00;5006634;28;19921;-65
2023/04/27 00:14:43;;;;;;;;;;;;;;;-142.75;100.00;78488.03;5008478;28;19976;-65
2023/04/27 00:17:08;;;;;;;;;;;;;;;-142.75;100.00;78507.75;5007871;28;19913;-66
2023/04/27 00:19:34;;;;;;;;;;;;;;;-142.75;100.00;78511.69;5007853;28;19940;-65
2023/04/27 00:21:59;;;;;;;;;;;;;;;-142.75;100.00;78505.78;5006542;28;20294;-65
2023/04/27 00:24:24;;;;;;;;;;;;;;;-142.75;100.00;78491.97;5007123;28;19920;-65
2023/04/27 00:26:50;;;;;;;;;;;;;;;-142.75;100.00;78505.78;4989953;28;19920;-65
2023/04/27 00:29:17;;;;;;;;;;;;;;;-142.75;100.00;78495.94;5007532;28;19913;-65
2023/04/27 00:31:42;;;;;;;;;;;;;;;-142.75;100.00;78515.63;5007486;28;19913;-66
2023/04/27 00:34:07;;;;;;;;;;;;;;;-142.75;100.00;78523.50;5007322;28;20019;-65
2023/04/27 00:36:33;;;;;;;;;;;;;;;-142.75;100.00;78525.47;5007765;28;19913;-66
2023/04/27 00:38:59;;;;;;;;;;;;;;;-142.75;100.00;78525.47;5008742;28;19969;-64
2023/04/27 00:41:24;;;;;;;;;;;;;;;-142.75;100.00;78531.38;5008413;28;19962;-64
2023/04/27 00:43:49;;;;;;;;;;;;;;;-142.75;100.00;78513.66;5007827;28;20433;-65
2023/04/27 00:46:15;;;;;;;;;;;;;;;-142.75;100.00;78491.97;5007573;28;19967;-65
2023/04/27 00:48:41;;;;;;;;;;;;;;;-142.75;100.00;78493.97;5006928;28;19917;-65
2023/04/27 00:51:06;;;;;;;;;;;;;;;-142.75;100.00;78501.84;5007231;28;19925;-64
2023/04/27 00:53:32;;;;;;;;;;;;;;;-142.75;100.00;78503.81;5007100;28;19935;-65
2023/04/27 00:55:57;;;;;;;;;;;;;;;-142.75;100.00;78507.75;5006985;28;19920;-65
2023/04/27 00:58:22;;;;;;;;;;;;;;;-142.75;100.00;78497.91;5007055;28;20474;-65
2023/04/27 01:00:48;;;;;;;;;;;;;;;-142.75;100.00;78505.78;4989349;28;19968;-66
2023/04/27 01:03:13;;;;;;;;;;;;;;;-142.75;100.00;78507.75;5006604;28;19949;-66
2023/04/27 01:05:38;;;;;;;;;;;;;;;-142.75;100.00;78507.75;5006900;28;19920;-65
2023/04/27 01:08:04;;;;;;;;;;;;;;;-142.75;100.00;78503.81;5006964;28;19944;-65
2023/04/27 01:10:29;;;;;;;;;;;;;;;-142.75;100.00;78515.63;5006729;28;19917;-66
2023/04/27 01:12:55;;;;;;;;;;;;;;;-142.75;100.00;78491.97;5006738;28;19921;-65
2023/04/27 01:15:20;;;;;;;;;;;;;;;-142.75;100.00;78490.00;5007400;28;19921;-65
2023/04/27 01:17:46;;;;;;;;;;;;;;;-142.75;100.00;78478.19;5006791;28;19913;-65
2023/04/27 01:20:11;;;;;;;;;;;;;;;-142.75;100.00;78474.25;5006721;28;19959;-65
2023/04/27 01:22:37;;;;;;;;;;;;;;;-142.75;100.00;78460.47;5006697;28;19917;-65
2023/04/27 01:25:02;;;;;;;;;;;;;;;-142.75;100.00;78456.53;5006364;28;19935;-66
2023/04/27 01:27:27;;;;;;;;;;;;;;;-142.75;100.00;78474.25;5006609;28;19921;-65
2023/04/27 01:29:52;;;;;;;;;;;;;;;-142.75;100.00;78499.88;5006291;28;19913;-65
2023/04/27 01:32:18;;;;;;;;;;;;;;;-142.75;100.00;78486.06;4988978;28;20464;-66
2023/04/27 01:34:43;;;;;;;;;;;;;;;-142.75;100.00;78470.31;5006246;28;20537;-65
2023/04/27 01:37:08;;;;;;;;;;;;;;;-142.75;100.00;78484.09;5006499;28;19913;-66
2023/04/27 01:39:36;;;;;;;;;;;;;;;-142.75;100.00;78507.75;5006408;28;19923;-65
2023/04/27 01:42:02;;;;;;;;;;;;;;;-142.75;100.00;78495.94;5006725;28;19917;-65
2023/04/27 01:44:27;;;;;;;;;;;;;;;-142.75;100.00;78499.88;5007064;28;19913;-66
2023/04/27 01:46:53;;;;;;;;;;;;;;;-142.75;100.00;78486.06;5006337;28;19913;-65
2023/04/27 01:49:18;;;;;;;;;;;;;;;-142.75;100.00;78486.06;5006412;28;20382;-65
2023/04/27 01:51:43;;;;;;;;;;;;;;;-142.75;100.00;78482.13;5006260;28;19921;-65
2023/04/27 01:54:08;;;;;;;;;;;;;;;-142.75;100.00;78486.06;5005722;28;20023;-65
2023/04/27 01:56:34;;;;;;;;;;;;;;;-142.75;100.00;78495.94;5005224;28;19967;-65
2023/04/27 01:58:59;;;;;;;;;;;;;;;-142.75;100.00;78499.88;5005060;28;19926;-68
2023/04/27 02:01:24;;;;;;;;;;;;;;;-142.75;100.00;78501.84;5006321;28;19920;-65
2023/04/27 02:03:49;;;;;;;;;;;;;;;-142.75;100.00;78491.97;5004584;28;19924;-65
2023/04/27 02:06:15;;;;;;;;;;;;;;;-142.75;100.00;78499.88;5006311;28;19914;-65
2023/04/27 02:08:40;;;;;;;;;;;;;;;-142.75;100.00;78507.75;5005733;28;19917;-65
2023/04/27 02:11:05;;;;;;;;;;;;;;;-142.75;100.00;78515.63;5018556;28;19963;-65
2023/04/27 02:13:30;;;;;;;;;;;;;;;-142.75;100.00;78535.31;5006106;28;19920;-65
2023/04/27 02:15:56;;;;;;;;;;;;;;;-142.75;100.00;78533.34;5007907;28;19913;-65
2023/04/27 02:18:21;;;;;;;;;;;;;;;-142.75;100.00;78521.53;5006279;28;19968;-66
2023/04/27 02:20:46;;;;;;;;;;;;;;;-142.75;100.00;78537.28;5006216;28;19922;-65
2023/04/27 02:23:11;;;;;;;;;;;;;;;-142.75;100.00;78547.13;5008717;28;20418;-65
2023/04/27 02:25:37;;;;;;;;;;;;;;;-142.75;100.00;78543.19;5006032;28;20372;-64
2023/04/27 02:28:02;;;;;;;;;;;;;;;-142.75;100.00;78549.09;5014789;28;19920;-65
2023/04/27 02:30:29;;;;;;;;;;;;;;;-142.75;100.00;78553.03;5006211;28;19921;-66
2023/04/27 02:32:54;;;;;;;;;;;;;;;-142.75;100.00;78543.19;5006071;28;20011;-65
2023/04/27 02:35:19;;;;;;;;;;;;;;;-142.75;100.00;78558.94;5006102;28;19956;-65
2023/04/27 02:37:44;;;;;;;;;;;;;;;-142.75;100.00;78558.94;5005954;28;19914;-65
2023/04/27 02:40:10;;;;;;;;;;;;;;;-142.75;100.00;78558.94;5005985;28;20434;-65
2023/04/27 02:42:37;;;;;;;;;;;;;;;-142.75;100.00;78566.81;5006010;28;19914;-65
2023/04/27 02:45:03;;;;;;;;;;;;;;;-142.75;100.00;78576.66;5007042;28;19967;-66
2023/04/27 02:47:28;;;;;;;;;;;;;;;-142.75;100.00;78586.53;5005868;28;19995;-66
2023/04/27 02:49:53;;;;;;;;;;;;;;;-142.75;100.00;78562.88;5005989;28;19913;-65
2023/04/27 02:52:18;;;;;;;;;;;;;;;-142.75;100.00;78562.88;5006111;28;19919;-66
2023/04/27 02:54:44;;;;;;;;;;;;;;;-142.75;100.00;78578.63;5003172;28;20032;-65
2023/04/27 02:57:09;;;;;;;;;;;;;;;-142.75;100.00;78562.88;5005994;28;19910;-65
2023/04/27 02:59:35;;;;;;;;;;;;;;;-142.75;100.00;78547.13;5005876;28;19913;-64
2023/04/27 03:02:00;;;;;;;;;;;;;;;-142.75;100.00;78558.94;5005981;28;19932;-65
2023/04/27 03:04:26;;;;;;;;;;;;;;;-142.75;100.00;78576.66;5006702;28;19987;-66
2023/04/27 03:06:51;;;;;;;;;;;;;;;-142.75;100.00;78582.59;5009338;28;19915;-66
2023/04/27 03:09:17;;;;;;;;;;;;;;;-142.75;100.00;78576.66;5009436;28;19995;-65
2023/04/27 03:11:42;;;;;;;;;;;;;;;-142.75;100.00;78562.88;5009177;28;20004;-65
2023/04/27 03:14:07;;;;;;;;;;;;;;;-142.75;100.00;78555.00;5008830;28;20285;-65
2023/04/27 03:16:33;;;;;;;;;;;;;;;-142.75;100.00;78562.88;5009032;28;19916;-65
2023/04/27 03:18:58;;;;;;;;;;;;;;;-142.75;100.00;78564.84;5007155;28;19957;-64
2023/04/27 03:21:23;;;;;;;;;;;;;;;-142.75;100.00;78562.88;5008669;28;19916;-65
2023/04/27 03:23:48;;;;;;;;;;;;;;;-142.75;100.00;78562.88;5007775;28;19909;-65
2023/04/27 03:26:14;;;;;;;;;;;;;;;-142.75;100.00;78568.78;5008446;28;19917;-65
2023/04/27 03:28:39;;;;;;;;;;;;;;;-142.75;100.00;78588.50;5008428;28;19909;-65
2023/04/27 03:31:09;;;;;;;;;;;;;;;-142.75;100.00;78586.53;5008463;28;20040;-65
2023/04/27 03:33:37;;;;;;;;;;;;;;;-142.75;100.00;78582.59;5008047;28;20478;-65
2023/04/27 03:36:03;;;;;;;;;;;;;;;-142.75;100.00;78608.19;5008181;28;19909;-65
2023/04/27 03:38:29;;;;;;;;;;;;;;;-142.75;100.00;78625.91;5008136;28;19917;-66
2023/04/27 03:40:55;;;;;;;;;;;;;;;-142.75;100.00;78625.91;5008373;28;19916;-66
2023/04/27 03:43:20;;;;;;;;;;;;;;;-142.75;100.00;78625.91;5008543;28;19913;-65
2023/04/27 03:45:46;;;;;;;;;;;;;;;-142.75;100.00;78612.13;5007959;28;19921;-65
2023/04/27 03:48:11;;;;;;;;;;;;;;;-142.75;100.00;78606.22;5008589;28;20373;-65
2023/04/27 03:50:36;;;;;;;;;;;;;;;-142.75;100.00;78604.25;5008552;28;19909;-64
2023/04/27 03:53:02;;;;;;;;;;;;;;;-142.75;100.00;78612.13;5009496;28;19956;-64
2023/04/27 03:55:27;;;;;;;;;;;;;;;-142.75;100.00;78625.91;5010423;28;19947;-66
2023/04/27 03:57:52;;;;;;;;;;;;;;;-142.75;100.00;78629.84;5010238;28;19909;-66
2023/04/27 04:00:17;;;;;;;;;;;;;;;-142.75;100.00;78614.09;5010228;28;20398;-65
2023/04/27 04:02:43;;;;;;;;;;;;;;;-142.75;100.00;78618.03;5009807;28;20526;-64
2023/04/27 04:05:08;;;;;;;;;;;;;;;-142.75;100.00;78620.00;5010084;28;19913;-66
2023/04/27 04:07:34;;;;;;;;;;;;;;;-142.75;100.00;78641.66;5025189;28;20394;-66
2023/04/27 04:09:59;;;;;;;;;;;;;;;-142.75;100.00;78629.84;5010191;28;20106;-66
2023/04/27 04:12:24;;;;;;;;;;;;;;;-142.75;100.00;78625.91;5010246;28;19921;-67
2023/04/27 04:14:50;;;;;;;;;;;;;;;-142.75;100.00;78625.91;5009651;28;19913;-66
2023/04/27 04:17:15;;;;;;;;;;;;;;;-142.75;100.00;78618.03;5009965;28;19913;-65
2023/04/27 04:19:40;;;;;;;;;;;;;;;-142.75;100.00;78623.94;5009745;28;19921;-65
2023/04/27 04:22:06;;;;;;;;;;;;;;;-142.75;100.00;78631.81;5009831;28;20337;-66
2023/04/27 04:24:31;;;;;;;;;;;;;;;-142.75;100.00;78635.75;5009396;28;20401;-65
2023/04/27 04:26:57;;;;;;;;;;;;;;;-142.75;100.00;78620.00;5009721;28;20271;-66
2023/04/27 04:29:22;;;;;;;;;;;;;;;-142.75;100.00;78616.06;5009621;28;19972;-65
2023/04/27 04:31:48;;;;;;;;;;;;;;;-142.75;100.00;78602.28;5009642;28;19918;-66
2023/04/27 04:34:13;;;;;;;;;;;;;;;-142.75;100.00;78625.91;5021040;28;19944;-66
2023/04/27 04:36:39;;;;;;;;;;;;;;;-142.75;100.00;78623.94;5009415;28;19913;-65
2023/04/27 04:39:05;;;;;;;;;;;;;;;-142.75;100.00;78657.41;5009508;28;19917;-66
2023/04/27 04:41:31;;;;;;;;;;;;;;;-142.75;100.00;78657.41;5009802;28;20364;-66
2023/04/27 04:43:56;;;;;;;;;;;;;;;-142.75;100.00;78655.44;4996094;28;19996;-65
2023/04/27 04:46:23;;;;;;;;;;;;;;;-142.75;100.00;78647.56;5009398;28;19925;-66
2023/04/27 04:48:48;;;;;;;;;;;;;;;-142.75;100.00;78653.47;5024328;28;19917;-66
2023/04/27 04:51:13;;;;;;;;;;;;;;;-142.75;100.00;78653.47;5009339;28;20020;-66
2023/04/27 04:53:39;;;;;;;;;;;;;;;-142.75;100.00;78661.34;5008999;28;20390;-66
2023/04/27 04:56:07;;;;;;;;;;;;;;;-142.75;100.00;78655.44;5009408;28;19936;-66
2023/04/27 04:58:32;;;;;;;;;;;;;;;-142.75;100.00;78655.44;5009436;28;19917;-65
2023/04/27 05:00:58;;;;;;;;;;;;;;;-142.75;100.00;78653.47;4997503;28;19967;-66
2023/04/27 05:03:23;;;;;;;;;;;;;;;-142.75;100.00;78645.59;5018187;28;19913;-66
2023/04/27 05:05:48;;;;;;;;;;;;;;;-142.75;100.00;78635.75;5014774;28;20513;-65
2023/04/27 05:08:13;;;;;;;;;;;;;;;-142.75;100.00;78639.69;5009254;28;19913;-65
2023/04/27 05:10:39;;;;;;;;;;;;;;;-142.75;100.00;78633.78;5009101;28;20142;-66
2023/04/27 05:13:04;;;;;;;;;;;;;;;-142.75;100.00;78637.72;5008620;28;20000;-65
2023/04/27 05:15:30;;;;;;;;;;;;;;;-142.75;100.00;78629.84;5008867;28;19913;-66
2023/04/27 05:17:55;;;;;;;;;;;;;;;-142.75;100.00;78618.03;5008770;28;19948;-65
2023/04/27 05:20:20;;;;;;;;;;;;;;;-142.75;100.00;78604.25;5008648;28;19927;-65
2023/04/27 05:22:45;;;;;;;;;;;;;;;-142.75;100.00;78592.44;5008591;28;19935;-65
2023/04/27 05:25:11;;;;;;;;;;;;;;;-142.75;100.00;78574.69;5008494;28;19913;-67
2023/04/27 05:27:36;;;;;;;;;;;;;;;-142.75;100.00;78574.69;5008177;28;19959;-65
2023/04/27 05:30:02;;;;;;;;;;;;;;;-142.75;100.00;78570.75;5008850;28;20294;-65
2023/04/27 05:32:27;;;;;;;;;;;;;;;-142.75;100.00;78551.06;5008418;28;20382;-66
2023/04/27 05:34:52;;;;;;;;;;;;;;;-142.75;100.00;78562.88;5000444;28;19913;-66
2023/04/27 05:37:17;;;;;;;;;;;;;;;-142.75;100.00;78578.63;5008151;28;19913;-65
2023/04/27 05:39:42;;;;;;;;;;;;;;;-142.75;100.00;78570.75;5004176;28;19917;-65
2023/04/27 05:42:08;;;;;;;;;;;;;;;-142.75;100.00;78574.69;5008072;28;19991;-64
2023/04/27 05:44:33;;;;;;;;;;;;;;;-142.75;100.00;78566.81;5008085;28;20354;-65
2023/04/27 05:46:58;;;;;;;;;;;;;;;-142.75;100.00;78580.59;5007849;28;19917;-65
2023/04/27 05:49:23;;;;;;;;;;;;;;;-142.75;100.00;78578.63;5008086;28;20386;-65
2023/04/27 05:51:49;;;;;;;;;;;;;;;-142.75;100.00;78568.78;5007869;28;19917;-65
2023/04/27 05:54:14;;;;;;;;;;;;;;;-142.75;100.00;78551.06;5007644;28;20012;-65
2023/04/27 05:56:40;;;;;;;;;;;;;;;-142.75;100.00;78525.47;5008068;28;20446;-65
2023/04/27 05:59:05;;;;;;;;;;;;;;;-142.75;100.00;78503.81;4997257;28;19917;-64
2023/04/27 06:01:30;;;;;;;;;;;;;;;-142.75;100.00;78472.28;5008208;28;19956;-65
2023/04/27 06:04:00;;;;;;;;;;;;;;;-142.75;100.00;78450.63;5015874;28;19913;-66
2023/04/27 06:06:25;;;;;;;;;;;;;;;-142.75;100.00;78436.84;5007712;28;20008;-67
2023/04/27 06:08:50;;;;;;;;;;;;;;;-142.75;100.00;78401.38;5007967;28;20370;-66
2023/04/27 06:11:16;;;;;;;;;;;;;;;-142.75;100.00;78385.63;5008270;28;19921;-66
2023/04/27 06:13:41;;;;;;;;;;;;;;;-142.75;100.00;78373.81;5007859;28;20385;-65
2023/04/27 06:16:06;;;;;;;;;;;;;;;-142.75;100.00;78350.19;5008218;28;19917;-65
2023/04/27 06:18:32;;;;;;;;;;;;;;;-142.75;100.00;78334.44;5008193;28;19992;-65
2023/04/27 06:20:58;;;;;;;;;;;;;;;-142.75;100.00;78350.19;5007221;28;20371;-66
2023/04/27 06:23:23;;;;;;;;;;;;;;;-142.75;100.00;78338.38;5007838;28;19914;-65
2023/04/27 06:25:48;;;;;;;;;;;;;;;-142.75;100.00;78320.66;5007935;28;19913;-65
2023/04/27 06:28:13;;;;;;;;;;;;;;;-142.75;100.00;78304.91;5007688;28;20421;-65
2023/04/27 06:30:38;;;;;;;;;;;;;;;-142.75;100.00;78320.66;5007792;28;19913;-65
2023/04/27 06:33:04;;;;;;;;;;;;;;;-142.75;100.00;78334.44;5007623;28;19969;-65
2023/04/27 06:35:29;;;;;;;;;;;;;;;-142.75;100.00;78316.72;5007405;28;19921;-68
2023/04/27 06:37:57;;;;;;;;;;;;;;;-142.75;100.00;78330.50;5007069;28;19968;-67
2023/04/27 06:40:23;;;;;;;;;;;;;;;-142.75;100.00;78320.66;5010061;28;20003;-64
2023/04/27 06:42:48;;;;;;;;;;;;;;;-142.75;100.00;78302.94;5010801;28;19991;-67
2023/04/27 06:45:13;;;;;;;;;;;;;;;-142.75;100.00;78310.81;5010834;28;20378;-67
2023/04/27 06:47:38;;;;;;;;;;;;;;;-142.75;100.00;78297.00;5010781;28;20477;-67
2023/04/27 06:50:04;;;;;;;;;;;;;;;-142.75;100.00;78269.44;5008407;28;19914;-68
2023/04/27 06:52:30;;;;;;;;;;;;;;;-142.75;100.00;78255.66;5010320;28;19917;-67
2023/04/27 06:54:56;;;;;;;;;;;;;;;-142.75;100.00;78249.75;5011157;28;19928;-69
2023/04/27 06:57:21;;;;;;;;;;;;;;;-142.75;100.00;78216.28;5009024;28;20589;-67
2023/04/27 06:59:47;;;;;;;;;;;;;;;-142.75;100.00;78216.28;5010351;28;19925;-68
2023/04/27 07:02:12;;;;;;;;;;;;;;;-142.75;100.00;78206.44;5012260;28;19913;-67
2023/04/27 07:04:37;;;;;;;;;;;;;;;-142.75;100.00;78192.66;5011719;28;19913;-67
2023/04/27 07:07:02;;;;;;;;;;;;;;;-142.75;100.00;78192.66;5006128;28;20012;-67
2023/04/27 07:09:28;;;;;;;;;;;;;;;-142.75;100.00;78204.47;5013765;28;20016;-67
2023/04/27 07:11:57;;;;;;;;;;;;;;;-142.75;100.00;78165.06;5010874;28;20382;-67
2023/04/27 07:14:22;;;;;;;;;;;;;;;-142.75;100.00;78151.28;5009726;28;19913;-67
2023/04/27 07:16:48;;;;;;;;;;;;;;;-142.75;99.40;78137.50;5022331;28;20651;-67
2023/04/27 07:19:13;;;;;;;;;;;;;;;-142.75;98.94;78141.44;5011870;28;19918;-67
2023/04/27 07:21:38;;;;;;;;;;;;;;;-142.75;99.32;78106.00;5011566;28;20618;-67
2023/04/27 07:24:03;;;;;;;;;;;;;;;-142.75;96.39;78094.19;5009213;28;20398;-67
2023/04/27 07:26:30;;;;;;;;;;;;;;;-142.75;95.62;78106.00;5020139;28;19917;-67
2023/04/27 07:28:56;;;;;;;;;;;;;;;-142.75;94.45;78119.78;5012705;28;20393;-68
2023/04/27 07:31:21;;;;;;;;;;;;;;;-142.75;95.13;78137.50;5010349;28;19914;-68
2023/04/27 07:33:46;;;;;;;;;;;;;;;-142.75;96.53;78113.88;5012540;28;19921;-67
2023/04/27 07:36:11;;;;;;;;;;;;;;;-142.75;96.23;78070.56;5011727;28;19914;-67
2023/04/27 07:38:37;;;;;;;;;;;;;;;-142.75;96.32;78056.78;5016642;28;20436;-67
2023/04/27 07:41:04;;;;;;;;;;;;;;;-142.75;94.42;78068.59;5010903;28;19919;-67
2023/04/27 07:43:30;;;;;;;;;;;;;;;-142.75;94.56;78050.84;5010640;28;20374;-67
2023/04/27 07:45:57;;;;;;;;;;;;;;;-142.75;91.91;78056.78;5010490;28;19913;-67
2023/04/27 07:48:22;;;;;;;;;;;;;;;-142.75;93.02;78035.09;5009515;28;19936;-65
2023/04/27 07:50:48;;;;;;;;;;;;;;;-142.75;91.99;78013.44;5009517;28;20386;-66
2023/04/27 07:53:13;;;;;;;;;;;;;;;-142.75;92.45;78029.19;5010951;28;19913;-67
2023/04/27 07:55:43;;;;;;;;;;;;;;;-142.75;91.30;78023.28;5002783;28;19913;-64
2023/04/27 07:58:08;;;;;;;;;;;;;;;-142.75;89.36;78046.91;5009893;28;19917;-67
2023/04/27 08:00:36;;;;;;;;;;;;;;;-142.75;90.92;78042.97;5016859;28;19925;-67
2023/04/27 08:03:02;;;;;;;;;;;;;;;-142.75;93.50;78005.56;5006721;28;19913;-66
2023/04/27 08:05:27;;;;;;;;;;;;;;;-142.75;90.03;77976.03;5009839;28;19960;-65
2023/04/27 08:07:52;;;;;;;;;;;;;;;-142.75;90.25;77956.34;5010335;28;20039;-65
2023/04/27 08:10:18;;;;;;;;;;;;;;;-142.75;89.29;77915.00;5010232;28;19923;-65
2023/04/27 08:12:43;;;;;;;;;;;;;;;-142.75;88.95;77924.84;5010284;28;19959;-65
2023/04/27 08:15:09;;;;;;;;;;;;;;;-142.75;88.93;77905.13;5007678;28;19988;-65
2023/04/27 08:17:35;;;;;;;;;;;;;;;-142.75;87.08;77916.97;5009892;28;19921;-65
2023/04/27 08:20:01;;;;;;;;;;;;;;;-142.75;88.18;77916.97;5002227;28;20418;-66
2023/04/27 08:22:26;;;;;;;;;;;;;;;-142.75;88.35;77903.16;5009068;28;19949;-64
2023/04/27 08:24:51;;;;;;;;;;;;;;;-142.75;86.62;77895.28;5008886;28;20383;-65
2023/04/27 08:27:16;;;;;;;;;;;;;;;-142.75;85.56;77869.69;5008236;28;20405;-65
2023/04/27 08:29:48;;;;;;;;;;;;;;;-142.75;84.26;77869.69;5008952;28;20345;-64
2023/04/27 08:32:13;;;;;;;;;;;;;;;-142.75;84.04;77869.69;5008525;28;19913;-65
2023/04/27 08:34:38;;;;;;;;;;;;;;;-142.75;84.35;77867.72;5008213;28;19913;-65
2023/04/27 08:37:04;;;;;;;;;;;;;;;-142.75;85.07;77861.81;5009559;28;19920;-60
2023/04/27 08:39:29;;;;;;;;;;;;;;;-142.75;87.86;77842.13;5009781;28;19917;-66
2023/04/27 08:41:54;;;;;;;;;;;;;;;-142.75;85.15;77875.59;5009268;28;20581;-66
2023/04/27 08:44:20;;;;;;;;;;;;;;;-142.75;84.50;77859.84;5007546;28;19921;-64
2023/04/27 08:46:45;;;;;;;;;;;;;;;-142.75;82.75;77853.94;5009019;28;19917;-65
2023/04/27 08:49:10;;;;;;;;;;;;;;;-142.75;82.76;77855.91;5009177;28;19924;-64
2023/04/27 08:51:36;;;;;;;;;;;;;;;-142.75;85.71;77844.09;5009183;28;20342;-64
2023/04/27 08:54:01;;;;;;;;;;;;;;;-142.75;82.60;77873.63;5009083;28;20318;-64
2023/04/27 08:56:27;;;;;;;;;;;;;;;-142.75;83.33;77863.78;5009303;28;19967;-64
2023/04/27 08:58:54;;;;;;;;;;;;;;;-142.75;81.84;77863.78;5008623;28;20462;-64
2023/04/27 09:01:20;;;;;;;;;;;;;;;-142.75;79.78;77865.75;5008479;28;21419;-64
2023/04/27 09:03:45;;;;;;;;;;;;;;;-142.75;79.70;77846.06;5008353;28;19921;-64
2023/04/27 09:06:11;;;;;;;;;;;;;;;-142.75;81.48;77857.88;5008920;28;19913;-64
2023/04/27 09:08:55;;;;;;;;;;;;;;;-142.75;81.90;77838.19;5008934;28;19914;-64
2023/04/27 09:11:33;;;;;;;;;;;;;;;-142.75;80.72;77790.94;5008979;28;19913;-64
2023/04/27 09:14:00;;;;;;;;;;;;;;;-142.75;80.08;77818.50;5008519;28;19913;-65
2023/04/27 09:16:27;;;;;;;;;;;;;;;-142.75;81.20;77806.69;5008877;28;20517;-65
2023/04/27 09:18:52;;;;;;;;;;;;;;;-142.75;80.30;77822.44;5008549;28;19917;-64
2023/04/27 09:21:21;;;;;;;;;;;;;;;-142.75;81.20;77830.31;5008707;28;20348;-63
2023/04/27 09:23:46;;;;;;;;;;;;;;;-142.75;82.11;77810.63;5008215;28;19913;-65
2023/04/27 09:26:18;;;;;;;;;;;;;;;-142.75;82.38;77771.25;5007213;28;20003;-63
2023/04/27 09:28:47;;;;;;;;;;;;;;;-142.75;81.10;77731.88;5008593;28;19913;-64
2023/04/27 09:31:12;;;;;;;;;;;;;;;-142.75;78.79;77700.34;5008689;28;19944;-64
2023/04/27 09:33:37;;;;;;;;;;;;;;;-142.75;78.05;77720.03;5008160;28;20011;-64
2023/04/27 09:36:03;;;;;;;;;;;;;;;-142.75;77.29;77694.44;5007397;28;19913;-64
2023/04/27 09:38:29;;;;;;;;;;;;;;;-142.75;77.43;77704.28;5008508;28;20378;-64
2023/04/27 09:40:55;;;;;;;;;;;;;;;-142.75;78.17;77712.16;5008298;28;20367;-65
2023/04/27 09:43:22;;;;;;;;;;;;;;;-142.75;76.91;77676.72;5008100;28;19971;-65
2023/04/27 09:45:47;;;;;;;;;;;;;;;-142.75;77.86;77662.94;5008398;28;19952;-65
2023/04/27 09:48:13;;;;;;;;;;;;;;;-142.75;79.01;77625.53;5008312;28;20003;-63
2023/04/27 09:50:39;;;;;;;;;;;;;;;-142.75;75.05;77637.34;5008258;28;19922;-65
2023/04/27 09:53:06;;;;;;;;;;;;;;;-142.75;72.76;77647.19;5007988;28;19913;-65
2023/04/27 09:55:35;;;;;;;;;;;;;;;-142.75;75.82;77625.53;5008484;28;20033;-64
2023/04/27 09:58:23;;;;;;;;;;;;;;;-142.75;74.41;77621.59;5008454;28;20321;-65
2023/04/27 10:00:55;;;;;;;;;;;;;;;-142.75;74.15;77570.41;5007743;28;19979;-65
2023/04/27 10:03:32;;;;;;;;;;;;;;;-142.75;72.70;77578.28;5006573;28;19956;-65
2023/04/27 10:06:16;;;;;;;;;;;;;;;-142.75;73.90;77554.66;4990523;28;19929;-64
2023/04/27 10:08:42;;;;;;;;;;;;;;;-142.75;74.72;77503.47;5007825;28;19920;-65
2023/04/27 10:11:14;;;;;;;;;;;;;;;-142.75;73.21;77471.97;5008017;28;19913;-65
2023/04/27 10:13:49;;;;;;;;;;;;;;;-142.75;71.26;77468.03;5009203;28;19913;-66
2023/04/27 10:16:15;;;;;;;;;;;;;;;-142.75;68.38;77473.94;5011660;28;20348;-65
2023/04/27 10:18:49;;;;;;;;;;;;;;;-142.75;68.53;77460.13;4994344;28;19921;-66
2023/04/27 10:21:15;;;;;;;;;;;;;;;-142.75;68.23;77485.75;5011983;28;19922;-65
2023/04/27 10:23:50;;;;;;;;;;;;;;;-142.75;66.05;77473.94;5011780;28;19963;-66
2023/04/27 10:26:26;;;;;;;;;;;;;;;-142.75;64.84;77462.13;5012535;28;19920;-65
2023/04/27 10:28:58;;;;;;;;;;;;;;;-142.75;65.31;77470.00;5011833;28;19921;-66
2023/04/27 10:31:27;;;;;;;;;;;;;;;-142.75;66.65;77468.03;5012296;28;19914;-65
2023/04/27 10:34:03;;;;;;;;;;;;;;;-142.75;64.28;77468.03;5011432;28;19913;-65
2023/04/27 10:36:33;;;;;;;;;;;;;;;-142.75;63.42;77464.09;5012181;28;19913;-64
2023/04/27 10:38:59;;;;;;;;;;;;;;;-142.75;64.47;77436.50;5011667;28;19924;-65
2023/04/27 10:41:32;;;;;;;;;;;;;;;-142.75;64.27;77405.00;5011663;28;19913;-64
2023/04/27 10:44:12;;;;;;;;;;;;;;;-142.75;65.34;77387.28;5011385;28;19992;-65
2023/04/27 10:46:48;;;;;;;;;;;;;;;-142.75;64.37;77361.69;5026745;28;19920;-65
2023/04/27 10:49:14;;;;;;;;;;;;;;;-142.75;65.36;77294.75;5011590;28;19920;-65
2023/04/27 10:51:39;;;;;;;;;;;;;;;-142.75;61.72;77397.13;5011225;28;19913;-65
2023/04/27 10:54:05;;;;;;;;;;;;;;;-142.75;61.87;77397.13;5011189;28;19966;-65
2023/04/27 10:56:31;;;;;;;;;;;;;;;-142.75;59.01;77422.72;5011566;28;19917;-65
2023/04/27 10:59:00;;;;;;;;;;;;;;;-142.75;60.65;77377.44;5011245;28;19917;-65
2023/04/27 11:01:28;;;;;;;;;;;;;;;-142.75;62.50;77316.41;5011299;28;19995;-65
2023/04/27 11:03:54;;;;;;;;;;;;;;;-142.75;61.40;77308.53;5010924;28;19921;-65
2023/04/27 11:06:19;;;;;;;;;;;;;;;-142.75;58.79;77273.09;5011271;28;20012;-65
2023/04/27 11:08:45;;;;;;;;;;;;;;;-142.75;56.26;77286.88;5011175;28;20031;-66
2023/04/27 11:11:13;;;;;;;;;;;;;;;-142.75;55.75;77310.50;5011049;28;20513;-65
2023/04/27 11:13:38;;;;;;;;;;;;;;;-142.75;55.23;77282.94;5010810;28;20075;-66
2023/04/27 11:16:03;;;;;;;;;;;;;;;-142.75;54.04;77318.38;5010927;28;20021;-68
2023/04/27 11:18:30;;;;;;;;;;;;;;;-142.75;53.84;77351.84;5010855;28;19956;-66
2023/04/27 11:21:09;;;;;;;;;;;;;;;-142.75;53.22;77369.56;5010827;28;19921;-66
2023/04/27 11:23:38;;;;;;;;;;;;;;;-142.75;57.82;77318.38;5010519;28;20051;-65
2023/04/27 11:26:10;;;;;;;;;;;;;;;-142.75;56.30;77312.47;5009974;28;20310;-65
2023/04/27 11:28:35;;;;;;;;;;;;;;;-142.75;57.13;77273.09;5010753;28;19914;-64
2023/04/27 11:31:00;;;;;;;;;;;;;;;-142.75;58.86;77216.00;5010872;28;19917;-65
2023/04/27 11:33:26;;;;;;;;;;;;;;;-142.75;55.06;77225.84;5010508;28;19922;-65
2023/04/27 11:35:51;;;;;;;;;;;;;;;-142.75;53.29;77239.63;5010711;28;19959;-65
2023/04/27 11:38:17;;;;;;;;;;;;;;;-142.75;54.26;77214.03;5010654;28;19913;-66
2023/04/27 11:40:43;;;;;;;;;;;;;;;-142.75;57.57;77180.56;5010391;28;19917;-66
2023/04/27 11:43:11;;;;;;;;;;;;;;;-142.75;54.60;77168.75;5010288;28;19987;-65
2023/04/27 11:45:40;;;;;;;;;;;;;;;-142.75;54.08;77178.59;5010376;28;19918;-66
2023/04/27 11:48:06;;;;;;;;;;;;;;;-142.75;56.23;77188.44;5010247;28;19917;-64
2023/04/27 11:50:31;;;;;;;;;;;;;;;-142.75;53.00;77243.56;5010510;28;19919;-65
2023/04/27 11:52:59;;;;;;;;;;;;;;;-142.75;52.12;77233.72;5010068;28;20402;-66
2023/04/27 11:55:24;;;;;;;;;;;;;;;-142.75;54.01;77186.47;4992627;28;19914;-65
2023/04/27 11:57:54;;;;;;;;;;;;;;;-142.75;54.50;77141.19;5010048;28;20004;-66
2023/04/27 12:00:20;;;;;;;;;;;;;;;-142.75;53.63;77154.97;4992240;28;20402;-65
2023/04/27 12:02:45;;;;;;;;;;;;;;;-142.75;51.64;77180.56;5009853;28;19913;-65
2023/04/27 12:05:11;;;;;;;;;;;;;;;-142.75;50.56;77286.88;5010030;28;19924;-66
2023/04/27 12:07:36;;;;;;;;;;;;;;;-142.75;52.85;77282.94;5010072;28;19919;-65
2023/04/27 12:10:02;;;;;;;;;;;;;;;-142.75;53.45;77259.31;5010076;28;19921;-65
2023/04/27 12:12:27;;;;;;;;;;;;;;;-142.75;54.96;77306.56;5009836;28;19913;-66
2023/04/27 12:14:52;;;;;;;;;;;;;;;-142.75;58.38;77343.97;5009471;28;20004;-65